createdAt,value
2023-01-22T00:01:21.944Z,1.10
2023-01-22T00:03:49.819Z,1.30
2023-01-22T00:06:17.344Z,1.40
2023-01-22T00:08:44.905Z,1.10
2023-01-22T00:11:12.678Z,1.30
2023-01-22T00:13:40.854Z,1.08
2023-01-22T00:16:09.292Z,1.10
2023-01-22T00:18:36.840Z,1.05
2023-01-22T00:21:04.413Z,1.10
2023-01-22T00:23:33.440Z,1.40
2023-01-22T00:26:06.832Z,1.00
2023-01-22T00:28:34.583Z,1.08
2023-01-22T00:31:03.512Z,1.20
2023-01-22T00:33:31.784Z,1.05
2023-01-22T00:36:07.091Z,1.17
2023-01-22T00:38:34.814Z,1.00
2023-01-22T00:41:03.879Z,1.30
2023-01-22T00:43:32.252Z,1.27
2023-01-22T00:46:00.624Z,1.15
2023-01-22T00:48:28.399Z,1.30
2023-01-22T00:50:56.185Z,1.00
2023-01-22T00:53:23.892Z,1.08
2023-01-22T00:56:02.806Z,1.08
2023-01-22T00:58:30.896Z,1.40
2023-01-22T01:00:58.925Z,1.20
2023-01-22T01:03:32.391Z,1.10
2023-01-22T01:06:05.970Z,0.82
2023-01-22T01:08:36.818Z,1.00
2023-01-22T01:11:07.742Z,0.88
2023-01-22T01:13:38.806Z,1.20
2023-01-22T01:16:09.341Z,1.00
2023-01-22T01:18:36.983Z,1.30
2023-01-22T01:21:05.502Z,0.90
2023-01-22T01:23:33.952Z,1.10
2023-01-22T01:26:04.979Z,1.25
2023-01-22T01:28:32.560Z,0.90
2023-01-22T01:31:04.344Z,1.20
2023-01-22T01:33:32.721Z,0.90
2023-01-22T01:36:05.806Z,1.20
2023-01-22T01:41:02.014Z,1.23
2023-01-22T01:43:29.873Z,1.20
2023-01-22T01:45:59.896Z,1.17
2023-01-22T01:48:35.398Z,1.10
2023-01-22T01:51:03.258Z,1.00
2023-01-22T01:53:31.379Z,1.08
2023-01-22T01:56:01.849Z,0.90
2023-01-22T01:58:34.476Z,1.17
2023-01-22T02:01:08.831Z,1.20
2023-01-22T02:03:36.841Z,1.00
2023-01-22T02:06:04.648Z,0.95
2023-01-22T02:08:32.929Z,1.00
2023-01-22T02:11:00.682Z,1.38
2023-01-22T02:13:32.661Z,0.90
2023-01-22T02:16:00.520Z,1.10
2023-01-22T02:18:28.322Z,1.10
2023-01-22T02:21:01.413Z,1.60
2023-01-22T02:23:31.455Z,1.17
2023-01-22T02:26:00.500Z,1.10
2023-01-22T02:28:28.081Z,1.00
2023-01-22T02:30:56.729Z,1.08
2023-01-22T02:33:25.637Z,1.23
2023-01-22T02:35:53.147Z,1.10
2023-01-22T02:38:20.754Z,1.30
2023-01-22T02:40:51.081Z,1.23
2023-01-22T02:43:20.517Z,1.25
2023-01-22T02:45:47.996Z,0.95
2023-01-22T02:48:16.344Z,1.00
2023-01-22T02:50:45.398Z,1.10
2023-01-22T02:53:13.772Z,1.50
2023-01-22T02:55:42.256Z,1.10
2023-01-22T02:58:09.954Z,1.67
2023-01-22T03:00:38.766Z,1.27
2023-01-22T03:03:08.033Z,1.25
2023-01-22T03:05:35.799Z,1.00
2023-01-22T03:08:05.130Z,1.08
2023-01-22T03:10:32.681Z,0.90
2023-01-22T03:13:19.310Z,0.90
2023-01-22T03:16:05.506Z,1.20
2023-01-22T03:18:51.955Z,1.10
2023-01-22T03:21:20.576Z,1.20
2023-01-22T03:23:51.255Z,0.80
2023-01-22T03:26:20.595Z,1.40
2023-01-22T03:28:49.313Z,1.60
2023-01-22T03:31:17.640Z,1.10
2023-01-22T03:33:45.466Z,1.38
2023-01-22T03:36:15.622Z,1.00
2023-01-22T03:38:51.272Z,1.05
2023-01-22T03:41:22.139Z,1.30
2023-01-22T03:43:50.284Z,0.98
2023-01-22T03:46:21.808Z,1.27
2023-01-22T03:48:54.370Z,1.20
2023-01-22T03:51:22.976Z,1.10
2023-01-22T03:53:50.902Z,1.42
2023-01-22T03:56:21.462Z,1.38
2023-01-22T03:58:50.428Z,1.30
2023-01-22T04:01:23.138Z,1.40
2023-01-22T04:03:52.812Z,1.50
2023-01-22T04:06:23.883Z,1.40
2023-01-22T04:08:54.866Z,1.30
2023-01-22T04:11:27.472Z,1.35
2023-01-22T04:13:56.106Z,1.55
2023-01-22T04:16:24.759Z,1.17
2023-01-22T04:19:01.264Z,1.60
2023-01-22T04:21:43.876Z,1.53
2023-01-22T04:24:14.365Z,1.25
2023-01-22T04:26:42.036Z,1.58
2023-01-22T04:29:10.375Z,1.83
2023-01-22T04:31:38.189Z,1.15
2023-01-22T04:34:05.818Z,1.60
2023-01-22T04:36:39.451Z,1.73
2023-01-22T04:39:07.011Z,1.45
2023-01-22T04:41:34.675Z,1.70
2023-01-22T04:44:02.781Z,1.55
2023-01-22T04:46:32.449Z,2.97
2023-01-22T04:49:00.454Z,2.55
2023-01-22T04:51:28.106Z,2.28
2023-01-22T04:53:55.755Z,1.92
2023-01-22T04:56:23.605Z,1.63
2023-01-22T04:58:51.236Z,1.80
2023-01-22T05:01:18.750Z,1.42
2023-01-22T05:03:46.619Z,1.30
2023-01-22T05:06:14.252Z,1.73
2023-01-22T05:08:41.902Z,1.98
2023-01-22T05:11:10.997Z,1.52
2023-01-22T05:13:55.355Z,1.73
2023-01-22T05:16:22.954Z,1.50
2023-01-22T05:18:50.588Z,1.70
2023-01-22T05:21:18.235Z,1.50
2023-01-22T05:23:47.268Z,1.48
2023-01-22T05:26:15.090Z,1.30
2023-01-22T05:28:52.179Z,1.42
2023-01-22T05:31:48.577Z,1.38
2023-01-22T05:34:48.770Z,1.40
2023-01-22T05:37:16.510Z,1.65
2023-01-22T05:39:44.103Z,2.55
2023-01-22T05:42:18.834Z,1.60
2023-01-22T05:44:49.031Z,1.48
2023-01-22T05:47:19.782Z,1.70
2023-01-22T05:50:23.096Z,1.80
2023-01-22T05:53:01.740Z,1.90
2023-01-22T05:55:29.797Z,1.42
2023-01-22T05:57:57.430Z,1.67
2023-01-22T06:00:25.799Z,1.40
2023-01-22T06:03:00.326Z,1.48
2023-01-22T06:05:31.186Z,1.23
2023-01-22T06:08:04.414Z,1.50
2023-01-22T06:10:40.240Z,1.50
2023-01-22T06:13:07.679Z,2.05
2023-01-22T06:15:35.316Z,1.63
2023-01-22T06:18:16.208Z,4.90
2023-01-22T06:20:43.883Z,2.10
2023-01-22T06:23:11.403Z,2.17
2023-01-22T06:25:38.957Z,2.42
2023-01-22T06:28:17.697Z,1.83
2023-01-22T06:30:46.261Z,1.60
2023-01-22T06:33:14.399Z,1.80
2023-01-22T06:35:42.200Z,1.80
2023-01-22T06:38:09.774Z,1.48
2023-01-22T06:40:37.456Z,1.40
2023-01-22T06:43:10.701Z,1.90
2023-01-22T06:45:39.424Z,1.80
2023-01-22T06:48:09.535Z,1.75
2023-01-22T06:50:37.010Z,1.60
2023-01-22T06:53:04.802Z,2.33
2023-01-22T06:55:32.303Z,1.65
2023-01-22T06:58:00.144Z,1.80
2023-01-22T07:00:27.720Z,1.40
2023-01-22T07:02:55.271Z,1.50
2023-01-22T07:05:23.251Z,1.60
2023-01-22T07:07:54.825Z,1.98
2023-01-22T07:10:22.819Z,1.90
2023-01-22T07:12:54.276Z,1.92
2023-01-22T07:15:22.114Z,1.70
2023-01-22T07:17:53.739Z,1.40
2023-01-22T07:20:23.048Z,1.63
2023-01-22T07:22:51.982Z,1.60
2023-01-22T07:25:20.387Z,1.70
2023-01-22T07:27:47.928Z,1.63
2023-01-22T07:30:15.501Z,1.77
2023-01-22T07:32:43.179Z,1.38
2023-01-22T07:35:10.621Z,1.70
2023-01-22T07:37:38.067Z,1.90
2023-01-22T07:40:06.355Z,2.05
2023-01-22T07:42:33.791Z,1.98
2023-01-22T07:45:02.122Z,1.50
2023-01-22T07:47:30.669Z,1.77
2023-01-22T07:49:58.144Z,1.50
2023-01-22T07:52:25.743Z,1.52
2023-01-22T07:54:53.441Z,1.90
2023-01-22T07:57:21.107Z,1.40
2023-01-22T07:59:48.701Z,1.70
2023-01-22T08:02:16.569Z,1.52
2023-01-22T08:04:44.209Z,1.27
2023-01-22T08:07:20.378Z,1.60
2023-01-22T08:09:47.840Z,1.95
2023-01-22T08:12:15.646Z,1.52
2023-01-22T08:14:43.379Z,1.65
2023-01-22T08:17:10.913Z,2.00
2023-01-22T08:19:38.637Z,1.83
2023-01-22T08:22:06.263Z,2.20
2023-01-22T08:24:34.934Z,2.50
2023-01-22T08:27:02.986Z,2.40
2023-01-22T08:29:30.578Z,2.20
2023-01-22T08:31:58.329Z,2.08
2023-01-22T08:34:27.318Z,1.83
2023-01-22T08:36:55.558Z,1.67
2023-01-22T08:39:23.505Z,1.60
2023-01-22T08:41:53.055Z,2.03
2023-01-22T08:44:21.054Z,1.65
2023-01-22T08:46:48.720Z,1.88
2023-01-22T08:49:18.427Z,2.10
2023-01-22T08:51:45.898Z,2.05
2023-01-22T08:54:13.434Z,2.05
2023-01-22T08:56:40.988Z,1.75
2023-01-22T08:59:08.455Z,1.98
2023-01-22T09:01:35.997Z,1.63
2023-01-22T09:04:07.931Z,1.70
2023-01-22T09:06:36.544Z,1.38
2023-01-22T09:09:05.263Z,1.50
2023-01-22T09:11:33.205Z,1.75
2023-01-22T09:14:00.686Z,1.50
2023-01-22T09:16:28.801Z,1.65
2023-01-22T09:18:56.346Z,1.90
2023-01-22T09:21:24.186Z,1.58
2023-01-22T09:23:51.927Z,1.52
2023-01-22T09:26:19.874Z,1.50
2023-01-22T09:28:48.627Z,1.85
2023-01-22T09:31:17.590Z,1.80
2023-01-22T09:33:45.344Z,1.60
2023-01-22T09:36:15.509Z,1.58
2023-01-22T09:38:44.415Z,1.55
2023-01-22T09:41:25.326Z,1.67
2023-01-22T09:43:58.062Z,1.90
2023-01-22T09:46:39.723Z,1.50
2023-01-22T09:49:15.628Z,1.75
2023-01-22T09:52:04.266Z,2.08
2023-01-22T09:54:34.296Z,2.00
2023-01-22T09:57:05.337Z,1.60
2023-01-22T09:59:44.852Z,1.95
2023-01-22T10:02:38.472Z,1.77
2023-01-22T10:05:34.288Z,2.20
2023-01-22T10:08:14.459Z,1.60
2023-01-22T10:10:46.135Z,1.42
2023-01-22T10:13:28.149Z,1.30
2023-01-22T10:15:56.803Z,1.30
2023-01-22T10:19:01.462Z,1.33
2023-01-22T10:21:32.284Z,1.58
2023-01-22T10:24:00.721Z,1.60
2023-01-22T10:26:46.975Z,1.60
2023-01-22T10:29:32.825Z,1.60
2023-01-22T10:32:00.267Z,1.50
2023-01-22T10:34:34.744Z,1.88
2023-01-22T10:37:05.154Z,1.70
2023-01-22T10:39:40.967Z,2.22
2023-01-22T10:42:20.022Z,1.70
2023-01-22T10:44:48.129Z,1.92
2023-01-22T10:47:27.537Z,1.60
2023-01-22T10:50:12.892Z,1.40
2023-01-22T10:52:45.315Z,1.40
2023-01-22T10:55:23.601Z,1.67
2023-01-22T10:57:59.236Z,1.65
2023-01-22T11:00:46.770Z,1.85
2023-01-22T11:03:24.352Z,1.77
2023-01-22T11:05:58.191Z,1.40
2023-01-22T11:08:31.131Z,1.30
2023-01-22T11:11:06.345Z,1.35
2023-01-22T11:14:01.071Z,1.63
2023-01-22T11:16:32.586Z,1.80
2023-01-22T11:19:36.048Z,1.48
2023-01-22T11:22:15.239Z,1.30
2023-01-22T11:24:53.066Z,1.58
2023-01-22T11:27:55.999Z,1.63
2023-01-22T11:30:49.374Z,1.40
2023-01-22T11:33:32.163Z,1.50
2023-01-22T11:36:17.340Z,1.58
2023-01-22T11:38:51.641Z,1.40
2023-01-22T11:41:21.958Z,1.30
2023-01-22T11:44:17.369Z,1.58
2023-01-22T11:47:03.514Z,1.70
2023-01-22T11:49:53.033Z,2.50
2023-01-22T11:52:47.608Z,1.63
2023-01-22T11:55:40.275Z,1.33
2023-01-22T11:58:27.970Z,1.30
2023-01-22T12:01:32.972Z,1.50
2023-01-22T12:04:46.695Z,1.30
2023-01-22T12:07:25.567Z,1.27
2023-01-22T12:10:20.369Z,1.40
2023-01-22T12:12:58.248Z,1.60
2023-01-22T12:15:53.605Z,1.50
2023-01-22T12:18:41.477Z,1.42
2023-01-22T12:21:18.179Z,1.30
2023-01-22T12:24:16.650Z,1.38
2023-01-22T12:27:00.799Z,1.30
2023-01-22T12:29:35.655Z,2.95
2023-01-22T12:32:09.508Z,1.65
2023-01-22T12:34:53.085Z,1.98
2023-01-22T12:40:02.958Z,1.92
2023-01-22T12:42:36.409Z,1.38
2023-01-22T12:45:22.798Z,1.92
2023-01-22T12:48:15.331Z,1.70
2023-01-22T12:50:52.289Z,1.33
2023-01-22T12:53:40.099Z,1.10
2023-01-22T12:56:10.292Z,1.27
2023-01-22T12:58:40.732Z,1.40
2023-01-22T13:01:12.121Z,1.38
2023-01-22T13:03:41.785Z,1.40
2023-01-22T13:06:36.152Z,1.65
2023-01-22T13:09:06.086Z,1.55
2023-01-22T13:11:41.558Z,1.42
2023-01-22T13:14:29.203Z,1.35
2023-01-22T13:17:06.469Z,1.30
2023-01-22T13:19:42.529Z,1.55
2023-01-22T13:22:16.326Z,1.60
2023-01-22T13:24:52.668Z,1.55
2023-01-22T13:27:38.308Z,1.35
2023-01-22T13:30:27.830Z,1.20
2023-01-22T13:33:05.492Z,1.60
2023-01-22T13:35:36.938Z,1.42
2023-01-22T13:38:04.535Z,1.70
2023-01-22T13:40:42.699Z,1.83
2023-01-22T13:43:23.041Z,1.75
2023-01-22T13:45:52.774Z,1.50
2023-01-22T13:48:22.549Z,1.38
2023-01-22T13:50:57.110Z,1.30
2023-01-22T13:53:35.437Z,1.70
2023-01-22T13:56:03.231Z,1.30
2023-01-22T13:58:47.174Z,1.63
2023-01-22T14:01:35.855Z,1.42
2023-01-22T14:04:06.824Z,1.40
2023-01-22T14:06:49.932Z,1.40
2023-01-22T14:09:38.257Z,1.20
2023-01-22T14:12:20.698Z,1.60
2023-01-22T14:14:48.649Z,1.60
2023-01-22T14:17:29.173Z,1.45
2023-01-22T14:20:01.760Z,1.42
2023-01-22T14:22:30.544Z,1.40
2023-01-22T14:24:58.297Z,1.40
2023-01-22T14:27:41.373Z,1.60
2023-01-22T14:30:10.501Z,1.40
2023-01-22T14:32:37.967Z,1.70
2023-01-22T14:35:05.716Z,1.60
2023-01-22T14:37:33.233Z,1.92
2023-01-22T14:40:00.723Z,1.90
2023-01-22T14:42:28.525Z,1.58
2023-01-22T14:44:59.016Z,1.55
2023-01-22T14:47:26.414Z,1.90
2023-01-22T14:49:57.547Z,1.50
2023-01-22T14:52:25.258Z,1.70
2023-01-22T14:54:52.705Z,1.73
2023-01-22T14:57:20.776Z,1.65
2023-01-22T14:59:48.284Z,2.03
2023-01-22T15:02:15.844Z,1.63
2023-01-22T15:04:44.115Z,1.77
2023-01-22T15:07:12.648Z,2.13
2023-01-22T15:09:41.309Z,2.13
2023-01-22T15:12:09.771Z,1.95
2023-01-22T15:14:39.807Z,1.83
2023-01-22T15:17:11.614Z,1.73
2023-01-22T15:19:42.857Z,1.58
2023-01-22T15:22:11.461Z,1.63
2023-01-22T15:24:39.811Z,1.40
2023-01-22T15:27:08.111Z,1.77
2023-01-22T15:29:35.831Z,1.50
2023-01-22T15:32:03.870Z,1.63
2023-01-22T15:34:31.379Z,1.60
2023-01-22T15:36:58.999Z,1.50
2023-01-22T15:39:26.439Z,1.80
2023-01-22T15:41:54.005Z,1.60
2023-01-22T15:44:21.516Z,1.73
2023-01-22T15:46:49.098Z,1.70
2023-01-22T15:49:18.414Z,1.70
2023-01-22T15:51:46.029Z,2.03
2023-01-22T15:54:15.960Z,2.10
2023-01-22T15:56:43.538Z,2.20
2023-01-22T15:59:12.835Z,2.00
2023-01-22T16:01:40.493Z,1.90
2023-01-22T16:04:08.893Z,2.00
2023-01-22T16:06:39.465Z,2.00
2023-01-22T16:09:10.485Z,1.77
2023-01-22T16:11:38.176Z,1.77
2023-01-22T16:14:05.872Z,1.73
2023-01-22T16:16:36.817Z,1.67
2023-01-22T16:19:06.772Z,1.60
2023-01-22T16:21:34.781Z,1.67
2023-01-22T16:24:03.237Z,1.73
2023-01-22T16:26:33.775Z,2.03
2023-01-22T16:29:03.202Z,1.80
2023-01-22T16:31:33.468Z,1.98
2023-01-22T16:34:08.317Z,1.60
2023-01-22T16:36:36.232Z,1.80
2023-01-22T16:39:04.619Z,1.60
2023-01-22T16:41:34.518Z,1.67
2023-01-22T16:44:18.316Z,1.50
2023-01-22T16:46:48.674Z,1.60
2023-01-22T16:49:19.433Z,1.88
2023-01-22T16:51:49.897Z,1.63
2023-01-22T16:54:29.555Z,1.65
2023-01-22T16:56:59.231Z,1.65
2023-01-22T16:59:27.682Z,1.92
2023-01-22T17:01:56.821Z,1.50
2023-01-22T17:04:24.496Z,1.40
2023-01-22T17:06:54.791Z,1.77
2023-01-22T17:09:27.891Z,1.60
2023-01-22T17:11:57.925Z,1.80
2023-01-22T17:14:28.863Z,1.63
2023-01-22T17:16:57.424Z,1.55
2023-01-22T17:19:25.248Z,1.40
2023-01-22T17:21:57.031Z,1.60
2023-01-22T17:24:24.754Z,1.75
2023-01-22T17:26:53.400Z,1.70
2023-01-22T17:29:24.701Z,1.40
2023-01-22T17:31:52.772Z,1.50
2023-01-22T17:34:20.494Z,1.83
2023-01-22T17:36:50.873Z,1.70
2023-01-22T17:39:27.991Z,1.60
2023-01-22T17:41:56.565Z,1.70
2023-01-22T17:44:26.583Z,1.70
2023-01-22T17:46:56.306Z,1.30
2023-01-22T17:49:23.803Z,1.50
2023-01-22T17:51:51.573Z,1.73
2023-01-22T17:54:19.969Z,1.73
2023-01-22T17:56:48.512Z,1.70
2023-01-22T17:59:20.764Z,1.65
2023-01-22T18:01:49.341Z,1.70
2023-01-22T18:04:17.022Z,1.52
2023-01-22T18:06:44.886Z,1.90
2023-01-22T18:09:16.005Z,1.77
2023-01-22T18:11:43.861Z,1.70
2023-01-22T18:14:21.942Z,1.50
2023-01-22T18:16:52.085Z,1.83
2023-01-22T18:19:22.147Z,1.40
2023-01-22T18:21:50.308Z,1.58
2023-01-22T18:24:18.422Z,2.03
2023-01-22T18:26:46.148Z,1.50
2023-01-22T18:29:13.901Z,1.42
2023-01-22T18:31:53.722Z,1.75
2023-01-22T18:34:21.725Z,1.40
2023-01-22T18:36:54.105Z,1.90
2023-01-22T18:39:22.570Z,1.75
2023-01-22T18:41:51.890Z,1.48
2023-01-22T18:44:20.624Z,1.58
2023-01-22T18:46:55.674Z,1.50
2023-01-22T18:49:24.687Z,1.52
2023-01-22T18:51:59.432Z,1.70
2023-01-22T18:54:29.532Z,1.70
2023-01-22T18:57:00.551Z,1.65
2023-01-22T18:59:28.225Z,2.08
2023-01-22T19:01:57.741Z,1.83
2023-01-22T19:04:25.600Z,1.77
2023-01-22T19:06:54.614Z,1.60
2023-01-22T19:09:22.610Z,2.20
2023-01-22T19:11:52.497Z,1.70
2023-01-22T19:14:21.434Z,1.80
2023-01-22T19:16:53.783Z,1.92
2023-01-22T19:19:24.904Z,1.58
2023-01-22T19:21:55.788Z,1.90
2023-01-22T19:24:25.283Z,1.83
2023-01-22T19:26:54.939Z,1.38
2023-01-22T19:29:24.399Z,2.08
2023-01-22T19:31:54.306Z,1.80
2023-01-22T19:34:26.075Z,1.83
2023-01-22T19:37:02.765Z,1.60
2023-01-22T19:39:31.119Z,2.33
2023-01-22T19:42:02.391Z,1.75
2023-01-22T19:44:30.585Z,1.70
2023-01-22T19:47:01.710Z,1.73
2023-01-22T19:49:29.842Z,1.52
2023-01-22T19:52:00.122Z,1.60
2023-01-22T19:54:58.240Z,1.63
2023-01-22T19:57:30.395Z,2.17
2023-01-22T19:59:59.421Z,2.08
2023-01-22T20:02:27.271Z,2.03
2023-01-22T20:04:54.921Z,2.75
2023-01-22T20:07:22.899Z,2.45
2023-01-22T20:09:50.653Z,2.75
2023-01-22T20:12:18.432Z,2.90
2023-01-22T20:14:45.903Z,2.20
2023-01-22T20:17:14.119Z,2.05
2023-01-22T20:19:42.496Z,2.22
2023-01-22T20:22:11.290Z,2.03
2023-01-22T20:24:40.663Z,2.00
2023-01-22T20:27:09.295Z,2.10
2023-01-22T20:29:39.028Z,1.83
2023-01-22T20:32:07.419Z,1.70
2023-01-22T20:34:35.045Z,1.50
2023-01-22T20:37:02.700Z,1.75
2023-01-22T20:39:30.193Z,2.03
2023-01-22T20:41:57.636Z,2.03
2023-01-22T20:44:25.616Z,1.70
2023-01-22T20:46:53.322Z,1.70
2023-01-22T20:49:21.011Z,1.83
2023-01-22T20:51:48.909Z,2.00
2023-01-22T20:54:20.236Z,1.70
2023-01-22T20:56:47.836Z,1.80
2023-01-22T20:59:18.547Z,1.83
2023-01-22T21:01:47.488Z,2.17
2023-01-22T21:04:15.715Z,2.13
2023-01-22T21:06:43.509Z,2.35
2023-01-22T21:09:11.741Z,1.92
2023-01-22T21:11:42.906Z,2.17
2023-01-22T21:14:16.749Z,2.10
2023-01-22T21:16:45.013Z,1.80
2023-01-22T21:19:24.579Z,2.00
2023-01-22T21:21:52.953Z,2.08
2023-01-22T21:24:20.525Z,2.00
2023-01-22T21:26:48.080Z,1.77
2023-01-22T21:29:21.534Z,1.90
2023-01-22T21:31:51.369Z,2.10
2023-01-22T21:34:21.483Z,2.10
2023-01-22T21:36:50.783Z,1.95
2023-01-22T21:39:21.309Z,1.70
2023-01-22T21:41:49.466Z,2.00
2023-01-22T21:44:37.858Z,2.17
2023-01-22T21:47:05.754Z,1.67
2023-01-22T21:49:36.380Z,2.00
2023-01-22T21:52:09.516Z,2.10
2023-01-22T21:54:39.725Z,1.92
2023-01-22T21:57:09.446Z,1.95
2023-01-22T21:59:37.196Z,1.95
2023-01-22T22:02:05.869Z,1.92
2023-01-22T22:04:33.442Z,2.25
2023-01-22T22:07:01.049Z,1.92
2023-01-22T22:09:29.313Z,2.03
2023-01-22T22:11:59.938Z,1.95
2023-01-22T22:14:30.403Z,1.80
2023-01-22T22:16:57.969Z,1.88
2023-01-22T22:19:25.621Z,1.60
2023-01-22T22:21:53.286Z,1.90
2023-01-22T22:24:21.207Z,2.08
2023-01-22T22:26:48.876Z,2.22
2023-01-22T22:29:16.419Z,1.98
2023-01-22T22:31:44.047Z,1.90
2023-01-22T22:34:14.607Z,2.17
2023-01-22T22:36:42.406Z,1.80
2023-01-22T22:39:10.647Z,2.15
2023-01-22T22:41:39.499Z,2.22
2023-01-22T22:44:08.499Z,2.53
2023-01-22T22:46:38.417Z,2.33
2023-01-22T22:49:06.933Z,2.70
2023-01-22T22:51:40.274Z,3.00
2023-01-22T22:54:16.728Z,2.70
2023-01-22T22:56:46.065Z,3.47
2023-01-22T22:59:14.877Z,2.30
2023-01-22T23:01:42.587Z,2.40
2023-01-22T23:04:12.075Z,2.70
2023-01-22T23:06:42.271Z,2.40
2023-01-22T23:09:12.666Z,2.03
2023-01-22T23:11:40.995Z,2.67
2023-01-22T23:14:08.936Z,2.50
2023-01-22T23:16:42.334Z,2.67
2023-01-22T23:19:15.631Z,2.17
2023-01-22T23:21:44.085Z,2.10
2023-01-22T23:24:13.578Z,2.88
2023-01-22T23:26:43.116Z,2.55
2023-01-22T23:29:12.310Z,2.55
2023-01-22T23:31:40.566Z,3.08
2023-01-22T23:34:15.904Z,2.50
2023-01-22T23:36:47.747Z,3.00
2023-01-22T23:39:18.450Z,2.83
2023-01-22T23:41:46.452Z,2.97
2023-01-22T23:44:14.023Z,3.75
2023-01-22T23:46:42.247Z,3.38
2023-01-22T23:49:10.542Z,3.13
2023-01-22T23:51:42.405Z,3.70
2023-01-22T23:54:10.069Z,3.10
2023-01-22T23:56:38.988Z,3.22
2023-01-22T23:59:06.660Z,2.90
